sensor_id;sensor_type;location;lat;lon;timestamp;P1;durP1;ratioP1;P2;durP2;ratioP2
55220;SDS011;41089;51.448;6.604;2022-08-25T00:02:30;5.93;;;3.20;;
55220;SDS011;41089;51.448;6.604;2022-08-25T00:08:30;3.30;;;3.00;;
55220;SDS011;41089;51.448;6.604;2022-08-25T00:14:35;5.40;;;3.38;;
55220;SDS011;41089;51.448;6.604;2022-08-25T00:20:36;7.38;;;3.72;;
55220;SDS011;41089;51.448;6.604;2022-08-25T00:26:37;4.37;;;3.40;;
55220;SDS011;41089;51.448;6.604;2022-08-25T00:32:39;6.40;;;3.42;;
55220;SDS011;41089;51.448;6.604;2022-08-25T00:38:41;6.30;;;3.73;;
55220;SDS011;41089;51.448;6.604;2022-08-25T00:44:42;9.52;;;3.85;;
55220;SDS011;41089;51.448;6.604;2022-08-25T00:50:43;5.47;;;3.37;;
55220;SDS011;41089;51.448;6.604;2022-08-25T00:56:43;6.70;;;3.63;;
55220;SDS011;41089;51.448;6.604;2022-08-25T01:02:44;5.18;;;4.13;;
55220;SDS011;41089;51.448;6.604;2022-08-25T01:08:44;5.68;;;3.28;;
55220;SDS011;41089;51.448;6.604;2022-08-25T01:14:45;6.40;;;3.17;;
55220;SDS011;41089;51.448;6.604;2022-08-25T01:20:54;4.40;;;3.37;;
55220;SDS011;41089;51.448;6.604;2022-08-25T01:26:54;4.82;;;3.45;;
55220;SDS011;41089;51.448;6.604;2022-08-25T01:32:55;6.60;;;3.70;;
55220;SDS011;41089;51.448;6.604;2022-08-25T01:38:56;6.22;;;3.15;;
55220;SDS011;41089;51.448;6.604;2022-08-25T01:44:57;4.18;;;3.35;;
55220;SDS011;41089;51.448;6.604;2022-08-25T01:50:58;5.03;;;3.55;;
55220;SDS011;41089;51.448;6.604;2022-08-25T01:56:58;6.53;;;3.87;;
55220;SDS011;41089;51.448;6.604;2022-08-25T02:02:58;8.00;;;5.30;;
55220;SDS011;41089;51.448;6.604;2022-08-25T02:09:01;6.93;;;3.57;;
55220;SDS011;41089;51.448;6.604;2022-08-25T02:15:07;6.80;;;3.67;;
55220;SDS011;41089;51.448;6.604;2022-08-25T02:21:07;9.82;;;5.05;;
55220;SDS011;41089;51.448;6.604;2022-08-25T02:27:10;8.27;;;4.90;;
55220;SDS011;41089;51.448;6.604;2022-08-25T02:33:11;9.35;;;4.30;;
55220;SDS011;41089;51.448;6.604;2022-08-25T02:39:11;5.53;;;3.93;;
55220;SDS011;41089;51.448;6.604;2022-08-25T02:45:12;8.30;;;3.90;;
55220;SDS011;41089;51.448;6.604;2022-08-25T02:51:13;5.13;;;4.22;;
55220;SDS011;41089;51.448;6.604;2022-08-25T02:57:13;6.50;;;4.82;;
55220;SDS011;41089;51.448;6.604;2022-08-25T03:03:14;5.93;;;4.22;;
55220;SDS011;41089;51.448;6.604;2022-08-25T03:09:15;9.27;;;4.40;;
55220;SDS011;41089;51.448;6.604;2022-08-25T03:15:17;6.30;;;3.78;;
55220;SDS011;41089;51.448;6.604;2022-08-25T03:21:17;6.13;;;3.88;;
55220;SDS011;41089;51.448;6.604;2022-08-25T03:27:18;5.75;;;4.00;;
55220;SDS011;41089;51.448;6.604;2022-08-25T03:33:18;5.97;;;4.10;;
55220;SDS011;41089;51.448;6.604;2022-08-25T03:39:20;5.38;;;4.63;;
55220;SDS011;41089;51.448;6.604;2022-08-25T03:45:21;6.50;;;5.03;;
55220;SDS011;41089;51.448;6.604;2022-08-25T03:51:23;6.22;;;4.22;;
55220;SDS011;41089;51.448;6.604;2022-08-25T03:57:25;6.20;;;4.30;;
55220;SDS011;41089;51.448;6.604;2022-08-25T04:03:26;5.50;;;4.37;;
55220;SDS011;41089;51.448;6.604;2022-08-25T04:09:26;4.85;;;4.00;;
55220;SDS011;41089;51.448;6.604;2022-08-25T04:15:27;7.50;;;4.47;;
55220;SDS011;41089;51.448;6.604;2022-08-25T04:21:28;4.95;;;4.15;;
55220;SDS011;41089;51.448;6.604;2022-08-25T04:27:28;8.25;;;4.35;;
55220;SDS011;41089;51.448;6.604;2022-08-25T04:33:29;7.10;;;4.47;;
55220;SDS011;41089;51.448;6.604;2022-08-25T04:39:29;8.10;;;3.90;;
55220;SDS011;41089;51.448;6.604;2022-08-25T04:45:30;6.90;;;4.13;;
55220;SDS011;41089;51.448;6.604;2022-08-25T04:51:35;10.97;;;4.73;;
55220;SDS011;41089;51.448;6.604;2022-08-25T04:57:38;8.55;;;5.40;;
55220;SDS011;41089;51.448;6.604;2022-08-25T05:03:38;7.00;;;4.63;;
55220;SDS011;41089;51.448;6.604;2022-08-25T05:09:39;7.57;;;5.27;;
55220;SDS011;41089;51.448;6.604;2022-08-25T05:15:40;8.57;;;4.80;;
55220;SDS011;41089;51.448;6.604;2022-08-25T05:21:50;6.65;;;4.93;;
55220;SDS011;41089;51.448;6.604;2022-08-25T05:27:51;9.23;;;5.68;;
55220;SDS011;41089;51.448;6.604;2022-08-25T05:33:54;13.93;;;5.53;;
55220;SDS011;41089;51.448;6.604;2022-08-25T05:39:55;14.15;;;6.53;;
55220;SDS011;41089;51.448;6.604;2022-08-25T05:45:56;9.05;;;5.60;;
55220;SDS011;41089;51.448;6.604;2022-08-25T05:51:57;10.20;;;5.90;;
55220;SDS011;41089;51.448;6.604;2022-08-25T05:57:58;10.65;;;5.65;;
55220;SDS011;41089;51.448;6.604;2022-08-25T06:03:59;14.75;;;5.50;;
55220;SDS011;41089;51.448;6.604;2022-08-25T06:10:00;12.53;;;5.67;;
55220;SDS011;41089;51.448;6.604;2022-08-25T06:22:27;14.35;;;6.43;;
55220;SDS011;41089;51.448;6.604;2022-08-25T06:28:28;14.40;;;5.97;;
55220;SDS011;41089;51.448;6.604;2022-08-25T06:34:29;12.32;;;5.32;;
55220;SDS011;41089;51.448;6.604;2022-08-25T06:40:29;12.73;;;6.37;;
55220;SDS011;41089;51.448;6.604;2022-08-25T06:46:30;14.10;;;5.22;;
55220;SDS011;41089;51.448;6.604;2022-08-25T06:52:30;11.60;;;5.07;;
55220;SDS011;41089;51.448;6.604;2022-08-25T06:58:31;10.82;;;5.25;;
55220;SDS011;41089;51.448;6.604;2022-08-25T07:04:33;8.88;;;6.15;;
55220;SDS011;41089;51.448;6.604;2022-08-25T07:10:34;10.10;;;5.28;;
55220;SDS011;41089;51.448;6.604;2022-08-25T07:16:34;10.23;;;4.32;;
55220;SDS011;41089;51.448;6.604;2022-08-25T07:22:36;10.70;;;5.05;;
55220;SDS011;41089;51.448;6.604;2022-08-25T07:28:37;13.25;;;5.05;;
55220;SDS011;41089;51.448;6.604;2022-08-25T07:34:37;7.93;;;4.57;;
55220;SDS011;41089;51.448;6.604;2022-08-25T07:41:00;10.00;;;4.87;;
55220;SDS011;41089;51.448;6.604;2022-08-25T07:47:03;12.25;;;4.45;;
55220;SDS011;41089;51.448;6.604;2022-08-25T07:53:04;11.43;;;4.65;;
55220;SDS011;41089;51.448;6.604;2022-08-25T07:59:05;11.00;;;5.10;;
55220;SDS011;41089;51.448;6.604;2022-08-25T08:05:08;7.22;;;4.53;;
55220;SDS011;41089;51.448;6.604;2022-08-25T08:11:29;10.75;;;4.65;;
55220;SDS011;41089;51.448;6.604;2022-08-25T08:17:33;10.70;;;4.20;;
55220;SDS011;41089;51.448;6.604;2022-08-25T08:23:34;8.20;;;4.53;;
55220;SDS011;41089;51.448;6.604;2022-08-25T08:29:35;9.73;;;4.22;;
55220;SDS011;41089;51.448;6.604;2022-08-25T08:35:36;5.55;;;4.03;;
55220;SDS011;41089;51.448;6.604;2022-08-25T08:48:16;8.45;;;3.70;;
55220;SDS011;41089;51.448;6.604;2022-08-25T08:54:19;7.10;;;3.70;;
55220;SDS011;41089;51.448;6.604;2022-08-25T09:00:24;9.18;;;4.30;;
55220;SDS011;41089;51.448;6.604;2022-08-25T09:06:27;5.70;;;3.55;;
55220;SDS011;41089;51.448;6.604;2022-08-25T09:18:47;10.82;;;4.32;;
55220;SDS011;41089;51.448;6.604;2022-08-25T09:37:35;6.57;;;3.90;;
55220;SDS011;41089;51.448;6.604;2022-08-25T09:43:39;10.82;;;4.00;;
55220;SDS011;41089;51.448;6.604;2022-08-25T09:49:57;6.50;;;3.53;;
55220;SDS011;41089;51.448;6.604;2022-08-25T09:56:03;6.15;;;3.92;;
55220;SDS011;41089;51.448;6.604;2022-08-25T10:02:28;6.90;;;3.85;;
55220;SDS011;41089;51.448;6.604;2022-08-25T10:14:39;8.68;;;3.70;;
55220;SDS011;41089;51.448;6.604;2022-08-25T10:20:40;4.10;;;3.13;;
55220;SDS011;41089;51.448;6.604;2022-08-25T10:27:42;4.65;;;3.10;;
55220;SDS011;41089;51.448;6.604;2022-08-25T10:45:47;3.57;;;2.60;;
55220;SDS011;41089;51.448;6.604;2022-08-25T10:52:26;7.80;;;2.97;;
55220;SDS011;41089;51.448;6.604;2022-08-25T11:11:08;4.97;;;2.90;;
55220;SDS011;41089;51.448;6.604;2022-08-25T11:17:18;6.75;;;4.25;;
55220;SDS011;41089;51.448;6.604;2022-08-25T11:23:23;5.35;;;3.20;;
55220;SDS011;41089;51.448;6.604;2022-08-25T11:29:28;5.68;;;3.55;;
55220;SDS011;41089;51.448;6.604;2022-08-25T11:35:37;4.47;;;3.25;;
55220;SDS011;41089;51.448;6.604;2022-08-25T11:48:04;3.72;;;3.10;;
55220;SDS011;41089;51.448;6.604;2022-08-25T11:54:41;6.00;;;2.88;;
55220;SDS011;41089;51.448;6.604;2022-08-25T12:00:43;5.30;;;3.25;;
55220;SDS011;41089;51.448;6.604;2022-08-25T12:13:04;6.07;;;3.15;;
55220;SDS011;41089;51.448;6.604;2022-08-25T12:25:36;4.90;;;2.95;;
55220;SDS011;41089;51.448;6.604;2022-08-25T12:50:41;6.20;;;2.75;;
55220;SDS011;41089;51.448;6.604;2022-08-25T13:03:27;3.90;;;2.95;;
55220;SDS011;41089;51.448;6.604;2022-08-25T13:09:46;3.72;;;2.53;;
55220;SDS011;41089;51.448;6.604;2022-08-25T13:16:19;3.85;;;2.55;;
55220;SDS011;41089;51.448;6.604;2022-08-25T13:22:25;2.95;;;2.40;;
55220;SDS011;41089;51.448;6.604;2022-08-25T13:28:34;4.88;;;2.53;;
55220;SDS011;41089;51.448;6.604;2022-08-25T13:34:37;4.18;;;2.20;;
55220;SDS011;41089;51.448;6.604;2022-08-25T13:40:40;2.75;;;2.47;;
55220;SDS011;41089;51.448;6.604;2022-08-25T13:46:41;3.88;;;2.30;;
55220;SDS011;41089;51.448;6.604;2022-08-25T13:52:45;3.15;;;2.28;;
55220;SDS011;41089;51.448;6.604;2022-08-25T13:58:48;3.47;;;2.42;;
55220;SDS011;41089;51.448;6.604;2022-08-25T14:04:48;2.57;;;2.37;;
55220;SDS011;41089;51.448;6.604;2022-08-25T14:10:50;4.38;;;2.10;;
55220;SDS011;41089;51.448;6.604;2022-08-25T14:17:13;3.17;;;2.50;;
55220;SDS011;41089;51.448;6.604;2022-08-25T14:23:18;2.10;;;2.00;;
55220;SDS011;41089;51.448;6.604;2022-08-25T14:29:21;5.07;;;2.60;;
55220;SDS011;41089;51.448;6.604;2022-08-25T14:35:22;3.10;;;2.90;;
55220;SDS011;41089;51.448;6.604;2022-08-25T14:41:23;5.47;;;2.67;;
55220;SDS011;41089;51.448;6.604;2022-08-25T14:47:25;3.03;;;2.53;;
55220;SDS011;41089;51.448;6.604;2022-08-25T14:53:26;3.23;;;2.30;;
55220;SDS011;41089;51.448;6.604;2022-08-25T14:59:27;2.70;;;2.30;;
55220;SDS011;41089;51.448;6.604;2022-08-25T15:05:27;2.67;;;2.47;;
55220;SDS011;41089;51.448;6.604;2022-08-25T15:11:28;6.50;;;3.57;;
55220;SDS011;41089;51.448;6.604;2022-08-25T15:17:30;3.92;;;2.75;;
55220;SDS011;41089;51.448;6.604;2022-08-25T15:23:30;3.13;;;2.80;;
55220;SDS011;41089;51.448;6.604;2022-08-25T15:29:31;3.67;;;2.40;;
55220;SDS011;41089;51.448;6.604;2022-08-25T15:35:33;4.68;;;2.60;;
55220;SDS011;41089;51.448;6.604;2022-08-25T15:41:34;66.65;;;5.13;;
55220;SDS011;41089;51.448;6.604;2022-08-25T15:47:37;3.20;;;2.90;;
55220;SDS011;41089;51.448;6.604;2022-08-25T15:53:38;3.25;;;2.95;;
55220;SDS011;41089;51.448;6.604;2022-08-25T15:59:38;7.47;;;3.53;;
55220;SDS011;41089;51.448;6.604;2022-08-25T16:05:40;5.40;;;2.40;;
55220;SDS011;41089;51.448;6.604;2022-08-25T16:11:41;2.70;;;2.20;;
55220;SDS011;41089;51.448;6.604;2022-08-25T16:17:42;3.40;;;2.60;;
55220;SDS011;41089;51.448;6.604;2022-08-25T16:23:43;2.60;;;2.15;;
55220;SDS011;41089;51.448;6.604;2022-08-25T16:29:44;5.05;;;2.50;;
55220;SDS011;41089;51.448;6.604;2022-08-25T16:35:44;5.13;;;2.90;;
55220;SDS011;41089;51.448;6.604;2022-08-25T16:41:46;3.28;;;2.35;;
55220;SDS011;41089;51.448;6.604;2022-08-25T16:47:48;3.13;;;2.33;;
55220;SDS011;41089;51.448;6.604;2022-08-25T16:53:49;2.85;;;2.65;;
55220;SDS011;41089;51.448;6.604;2022-08-25T17:00:09;5.18;;;2.30;;
55220;SDS011;41089;51.448;6.604;2022-08-25T17:06:12;3.60;;;2.40;;
55220;SDS011;41089;51.448;6.604;2022-08-25T17:12:13;2.60;;;2.40;;
55220;SDS011;41089;51.448;6.604;2022-08-25T17:18:14;2.55;;;2.35;;
55220;SDS011;41089;51.448;6.604;2022-08-25T17:24:15;3.75;;;2.33;;
55220;SDS011;41089;51.448;6.604;2022-08-25T17:30:18;3.47;;;2.65;;
55220;SDS011;41089;51.448;6.604;2022-08-25T17:36:23;4.97;;;2.40;;
55220;SDS011;41089;51.448;6.604;2022-08-25T17:42:31;3.33;;;2.38;;
55220;SDS011;41089;51.448;6.604;2022-08-25T17:48:34;5.00;;;3.05;;
55220;SDS011;41089;51.448;6.604;2022-08-25T17:54:37;2.42;;;2.22;;
55220;SDS011;41089;51.448;6.604;2022-08-25T18:00:37;6.17;;;2.50;;
55220;SDS011;41089;51.448;6.604;2022-08-25T18:06:38;2.13;;;1.98;;
55220;SDS011;41089;51.448;6.604;2022-08-25T18:12:38;4.20;;;1.90;;
55220;SDS011;41089;51.448;6.604;2022-08-25T18:18:40;4.53;;;2.72;;
55220;SDS011;41089;51.448;6.604;2022-08-25T18:24:41;3.90;;;2.67;;
55220;SDS011;41089;51.448;6.604;2022-08-25T18:30:42;3.80;;;2.63;;
55220;SDS011;41089;51.448;6.604;2022-08-25T18:36:43;6.13;;;2.55;;
55220;SDS011;41089;51.448;6.604;2022-08-25T18:42:43;2.63;;;2.43;;
55220;SDS011;41089;51.448;6.604;2022-08-25T18:48:44;3.75;;;2.30;;
55220;SDS011;41089;51.448;6.604;2022-08-25T18:54:45;3.30;;;2.42;;
55220;SDS011;41089;51.448;6.604;2022-08-25T19:00:45;5.33;;;2.83;;
55220;SDS011;41089;51.448;6.604;2022-08-25T19:06:46;4.22;;;3.22;;
55220;SDS011;41089;51.448;6.604;2022-08-25T19:12:46;9.27;;;3.30;;
55220;SDS011;41089;51.448;6.604;2022-08-25T19:18:47;9.40;;;3.50;;
55220;SDS011;41089;51.448;6.604;2022-08-25T19:24:50;3.50;;;2.88;;
55220;SDS011;41089;51.448;6.604;2022-08-25T19:30:50;5.20;;;3.20;;
55220;SDS011;41089;51.448;6.604;2022-08-25T19:36:51;3.85;;;3.28;;
55220;SDS011;41089;51.448;6.604;2022-08-25T19:42:52;4.45;;;2.78;;
55220;SDS011;41089;51.448;6.604;2022-08-25T19:48:52;5.30;;;2.63;;
55220;SDS011;41089;51.448;6.604;2022-08-25T19:54:53;9.85;;;3.22;;
55220;SDS011;41089;51.448;6.604;2022-08-25T20:00:53;5.97;;;2.90;;
55220;SDS011;41089;51.448;6.604;2022-08-25T20:06:54;3.23;;;2.97;;
55220;SDS011;41089;51.448;6.604;2022-08-25T20:12:55;4.43;;;3.00;;
55220;SDS011;41089;51.448;6.604;2022-08-25T20:18:55;4.93;;;3.00;;
55220;SDS011;41089;51.448;6.604;2022-08-25T20:25:00;3.92;;;2.95;;
55220;SDS011;41089;51.448;6.604;2022-08-25T20:31:03;3.72;;;3.28;;
55220;SDS011;41089;51.448;6.604;2022-08-25T20:37:04;3.42;;;2.90;;
55220;SDS011;41089;51.448;6.604;2022-08-25T20:43:06;4.85;;;3.40;;
55220;SDS011;41089;51.448;6.604;2022-08-25T20:49:07;8.77;;;3.83;;
55220;SDS011;41089;51.448;6.604;2022-08-25T20:55:07;3.53;;;3.07;;
55220;SDS011;41089;51.448;6.604;2022-08-25T21:01:30;4.85;;;4.05;;
55220;SDS011;41089;51.448;6.604;2022-08-25T21:07:43;7.35;;;3.85;;
55220;SDS011;41089;51.448;6.604;2022-08-25T21:13:43;8.38;;;4.53;;
55220;SDS011;41089;51.448;6.604;2022-08-25T21:19:45;4.80;;;3.58;;
55220;SDS011;41089;51.448;6.604;2022-08-25T21:25:46;6.50;;;4.10;;
55220;SDS011;41089;51.448;6.604;2022-08-25T21:31:47;7.33;;;4.07;;
55220;SDS011;41089;51.448;6.604;2022-08-25T21:37:48;8.20;;;6.30;;
55220;SDS011;41089;51.448;6.604;2022-08-25T21:43:49;7.40;;;6.50;;
55220;SDS011;41089;51.448;6.604;2022-08-25T21:49:50;7.53;;;5.80;;
55220;SDS011;41089;51.448;6.604;2022-08-25T21:55:51;9.40;;;4.80;;
55220;SDS011;41089;51.448;6.604;2022-08-25T22:01:55;8.10;;;5.75;;
55220;SDS011;41089;51.448;6.604;2022-08-25T22:08:00;9.38;;;5.15;;
55220;SDS011;41089;51.448;6.604;2022-08-25T22:14:00;8.07;;;5.37;;
55220;SDS011;41089;51.448;6.604;2022-08-25T22:20:02;12.25;;;4.82;;
55220;SDS011;41089;51.448;6.604;2022-08-25T22:26:03;9.18;;;4.88;;
55220;SDS011;41089;51.448;6.604;2022-08-25T22:32:04;9.68;;;4.47;;
55220;SDS011;41089;51.448;6.604;2022-08-25T22:38:05;9.80;;;4.80;;
55220;SDS011;41089;51.448;6.604;2022-08-25T22:44:07;7.72;;;5.47;;
55220;SDS011;41089;51.448;6.604;2022-08-25T22:50:07;8.05;;;4.38;;
55220;SDS011;41089;51.448;6.604;2022-08-25T22:56:09;5.50;;;4.40;;
55220;SDS011;41089;51.448;6.604;2022-08-25T23:02:10;5.28;;;4.25;;
55220;SDS011;41089;51.448;6.604;2022-08-25T23:08:10;5.32;;;3.95;;
55220;SDS011;41089;51.448;6.604;2022-08-25T23:14:11;7.17;;;4.10;;
55220;SDS011;41089;51.448;6.604;2022-08-25T23:20:12;7.47;;;4.28;;
55220;SDS011;41089;51.448;6.604;2022-08-25T23:26:33;6.97;;;4.23;;
55220;SDS011;41089;51.448;6.604;2022-08-25T23:32:36;7.57;;;5.15;;
55220;SDS011;41089;51.448;6.604;2022-08-25T23:38:37;7.88;;;5.55;;
55220;SDS011;41089;51.448;6.604;2022-08-25T23:44:39;8.13;;;6.18;;
55220;SDS011;41089;51.448;6.604;2022-08-25T23:50:40;11.07;;;6.88;;
55220;SDS011;41089;51.448;6.604;2022-08-25T23:56:45;10.23;;;9.13;;
